Auckland, New Zealand

3:41 AM NZDT on October 25, 2014 (GMT +1300)
Mangere Bridge | Change Station
CLOSE
Current Station
Personal Weather Station
Location: Manukau, Auckland
Elevation: 52 ft
Nearby Weather Stations

Elev 52 ft 36.94 °S, 174.77 °E | Updated 0 second ago

Clear
Clear
44.4 °F
Feels Like 44 °F
N
0.0
Wind Variable Wind from North
Gusts 0.0 mph

Today
High -- | Low -- °F
--% Chance of Precip.
Yesterday
High -- | Low -- °F
Precip. -- in
6:24 AM 7:46 PM
New Moon, 1% visible
Pressure 30.15 in
Visibility 6.2 miles
Clouds
Windchill 44 °F
Dew Point 38 °F
Humidity 77%
Rainfall 0.00 in
Snow Depth Not available.
UV Not available.
Pollen Not available.
Air Quality Not available.
Flu Activity Not available.
METAR NZAA 241430Z AUTO 16007KT 9999 NCD 08/03 Q1021 NOSIG

More Conditions Fewer Conditions

Pressure 30.15 in
Visibility 6.2 miles
Clouds
Windchill 44 °F
Dew Point 38 °F
Humidity 77%
Rainfall 0.00 in
Snow Depth Not available.
UV Not available.
Pollen Not available.
Air Quality Not available.
Flu Activity Not available.
METAR NZAA 241430Z AUTO 16007KT 9999 NCD 08/03 Q1021 NOSIG

More Conditions Fewer Conditions

10-Day Weather Forecast

Almanac

Astronomy

Oct. 25, 2014 Rise Set
Actual Time 6:24 AM NZDT 7:46 PM NZDT
Civil Twilight 5:56 AM NZDT 8:13 PM NZDT
Nautical Twilight 5:24 AM NZDT 8:46 PM NZDT
Astronomical Twilight 4:50 AM NZDT 9:20 PM NZDT
Moon 7:05 AM NZDT (10/25) 8:59 PM NZDT (10/25)
Length of Visible Light 14h 16m
Length of Day
13h 22m
Tomorrow will be 2m 13s longer.
New Moon, 1% of the Moon is Illuminated
Oct 24
New Moon
Oct 30
First Quarter
Nov 6
Full
Nov 14
Last Quarter
Nov 22
New

Yesterday's Extremes

Country Highs Country Lows

Community

WunderPhotos

Upload Photos

1,764,581 photos uploaded!

WunderBlogs® & News

Nearby

Snow Depth

Not available.

Earthquake Activity

City Distance Mag. Time & Date
No recent earthquake activity has been reported nearby.
Minimum magnitude displayed is 2.5.

Coastal Water Temperatures

Place Temperature
No Stations Reporting

Nearby Weather Stations